Bookmark and Share
Track history (hours):
 

Sichem Montreal

Last reported at 2014-Mar-31 04:24 UTC. Time now 2014-Apr-16 07:41 UTC.
Position N 31°10' E 121°51'.
Warning: this ship's position is 16 days out of date.

Length 128 m; draft 5.8 m.

Type: Tanker. MMSI: 565884000.

NotesDate/timePositionNaut miles runAvg speedWind from/ knotsBaromVisibWave heightAir tempDewpointWater temp
2014-Mar-31 04:24N 31°10' E 121°51'910.2
2014-Mar-31 03:33N 31°17' E 121°45'1010.2
2014-Mar-31 02:33N 31°23' E 121°35'1010.0
2014-Mar-31 01:33N 31°29' E 121°26'1212.3
2014-Mar-31 00:33N 31°37' E 121°16'1313.1
2014-Mar-30 23:33N 31°46' E 121°03'7 3.6
2014-Mar-30 21:30N 31°50' E 120°56'0 0.0
2014-Mar-30 19:24N 31°50' E 120°56'0 0.0
2014-Mar-30 18:27N 31°50' E 120°56'0 0.0
2014-Mar-30 17:22N 31°50' E 120°56'0 0.0
2014-Mar-30 16:30N 31°50' E 120°56'0 0.0
2014-Mar-30 15:16N 31°50' E 120°56'0 0.0
2014-Mar-30 01:07N 31°50' E 120°56'0 0.0
2014-Mar-29 23:07N 31°50' E 120°56'0 0.0
2014-Mar-29 22:33N 31°50' E 120°56'0 0.0
2014-Mar-29 18:25N 31°50' E 120°56'0 0.0
2014-Mar-29 16:07N 31°50' E 120°56'0 0.0
2014-Mar-29 15:07N 31°50' E 120°56'0 0.0
2014-Mar-29 09:15N 31°50' E 120°56'2 3.0
2014-Mar-29 08:33N 31°48' E 120°57'1210.5
2014-Mar-29 07:27N 31°42' E 121°09'910.6
2014-Mar-29 06:33N 31°36' E 121°18'0 0.1
2014-Mar-29 05:15N 31°36' E 121°18'0 0.1
2014-Mar-29 04:15N 31°36' E 121°18'0 0.0
2014-Mar-29 03:33N 31°36' E 121°18'0 0.0
2014-Mar-29 02:03N 31°36' E 121°18'0 0.1
2014-Mar-29 01:33N 31°36' E 121°18'0 0.0
2014-Mar-28 19:27N 31°36' E 121°18'0 0.2
2014-Mar-28 18:33N 31°36' E 121°18'0 0.0
2014-Mar-28 16:09N 31°36' E 121°18'0 0.0
2014-Mar-28 15:27N 31°36' E 121°18'0 0.0
2014-Mar-28 14:09N 31°36' E 121°18'0 0.0
2014-Mar-28 13:27N 31°36' E 121°18'1 1.2
2014-Mar-28 12:34N 31°35' E 121°19'1010.2
2014-Mar-28 11:33N 31°28' E 121°27'9 8.9
2014-Mar-28 10:33N 31°23' E 121°36'10 9.8
2014-Mar-28 09:33N 31°18' E 121°46'53 3.1
2014-Mar-27 16:24N 31°06' E 122°47'0 0.1
2014-Mar-27 15:24N 31°06' E 122°47'79 5.3
2014-Mar-27 00:25N 29°51' E 123°14'  

Dump ship's entire track history

sailing weather and tide predictions

Sichem Montreal — 9VLS2 — position and weather